Aeroporto :
LOGIN :

Iscrizione | Disclaimer

   EN    FR    IT 

 










Sommario :    VFR   VFR Marginale   IFR   IFR Intensivo   IFR Molto Intensivo
Visibilità : 
Base nubi : 
>= 8 km
>= 3000ft
5 / 8 km
1000 / 3000 ft
1500m / 5 km
500 / 1000 ft
800 / 1500m
200 / 500 ft
< 800m
< 200 ft
Simboli :   Temporali  Nebbia  Neve Forte  Precipitazioni Forti  Vento > 20 kt
SIGMETs :   Varie  Temporali  Ghiacco  Turbolenza  Onda orograficha  Ceneri Vulcaniche






- Altitudine del aeroporto : 36 ft
- Codice IATA : LTQ


LFAT - Le Touquet

ULTIMO METAR :
  • 080230Z AUTO 21012KT 180V250 9999 OVC020 10/08 Q1007

METARs OBSOLETI :
  • 080200Z AUTO 21013G24KT 180V250 9999 OVC021 10/07 Q1008
  • 080130Z AUTO 20012KT 170V230 9999 BKN021 OVC029 10/07 Q1009
  • 080100Z AUTO 20012KT 150V230 9999 BKN030 10/07 Q1009
  • 080030Z AUTO 20012KT 170V230 9999 OVC030 10/07 Q1010
  • 080000Z AUTO 20011KT 170V230 9999 OVC031 10/06 Q1011

Previsioni scadute.
ATIS : +33 3 21 06 62 84



MetMap, La meteo Aeronautica in un colpo d'occhio ! - Copyright ORBIFLY Dicembre 2007 - Disclaimer

ORBIFLY MET'MAP TEAM :

Programmazione e sviluppo : Alexandra Zaïnal
Concezione : Baudouin d'Aumeries
Aiuto per la programmazione : Marc-Olivier Méhu
Supporto tecnico e logistico : Manuel Goepfert
Aiuto per la traduzione : Arnaldo La Scala

Contatto : metmap@orbifly.com




FONTI E CREDITI :

   NOAA